createdAt,value
2022-09-21T00:09:58.949Z,89.25
2022-09-21T00:20:06.155Z,89.46
2022-09-21T00:30:12.957Z,89.42
2022-09-21T00:40:18.719Z,89.65
2022-09-21T00:50:26.402Z,89.71
2022-09-21T01:00:31.991Z,89.70
2022-09-21T01:10:48.278Z,90.07
2022-09-21T01:21:23.333Z,90.23
2022-09-21T01:31:35.888Z,90.63
2022-09-21T01:41:42.896Z,90.97
2022-09-21T01:51:52.987Z,91.34
2022-09-21T02:02:05.088Z,92.07
2022-09-21T02:12:10.875Z,92.64
2022-09-21T02:22:29.429Z,92.40
2022-09-21T02:32:41.983Z,92.27
2022-09-21T02:42:49.534Z,92.11
2022-09-21T02:52:55.982Z,92.04
2022-09-21T03:03:01.633Z,92.10
2022-09-21T03:13:09.102Z,92.31
2022-09-21T03:23:15.097Z,92.46
2022-09-21T03:33:21.416Z,92.63
2022-09-21T03:43:27.399Z,93.00
2022-09-21T03:53:33.012Z,92.87
2022-09-21T04:03:39.095Z,93.10
2022-09-21T04:13:50.206Z,93.05
2022-09-21T04:23:55.853Z,93.15
2022-09-21T04:34:01.493Z,93.16
2022-09-21T04:44:07.323Z,93.51
2022-09-21T04:54:13.028Z,93.40
2022-09-21T05:04:18.762Z,93.82
2022-09-21T05:14:24.457Z,93.54
2022-09-21T05:24:30.199Z,93.52
2022-09-21T05:34:51.254Z,93.39
2022-09-21T05:44:57.882Z,93.43
2022-09-21T05:55:10.245Z,93.40
2022-09-21T06:05:17.792Z,92.81
2022-09-21T06:15:23.602Z,92.71
2022-09-21T06:25:29.206Z,92.08
2022-09-21T06:35:36.330Z,91.45
2022-09-21T06:45:41.961Z,91.46
2022-09-21T06:55:47.595Z,91.14
2022-09-21T07:05:53.215Z,90.54
2022-09-21T07:15:58.866Z,89.61
2022-09-21T07:26:07.356Z,89.55
2022-09-21T07:36:13.346Z,86.97
2022-09-21T07:46:20.641Z,76.20
2022-09-21T07:56:27.010Z,71.85
2022-09-21T08:06:33.612Z,73.27
2022-09-21T08:16:40.527Z,74.43
2022-09-21T08:26:46.336Z,75.19
2022-09-21T08:36:55.526Z,75.76
2022-09-21T08:47:11.054Z,75.42
2022-09-21T08:57:17.369Z,75.10
2022-09-21T09:07:43.406Z,74.35
2022-09-21T09:17:59.791Z,72.63
2022-09-21T09:28:17.566Z,71.31
2022-09-21T09:38:29.616Z,69.04
2022-09-21T09:48:53.894Z,67.30
2022-09-21T09:59:08.163Z,65.40
2022-09-21T10:09:27.962Z,66.78
2022-09-21T10:19:34.289Z,67.87
2022-09-21T10:29:46.143Z,66.82
2022-09-21T10:39:51.779Z,65.46
2022-09-21T10:49:59.867Z,65.50
2022-09-21T11:00:35.423Z,64.66
2022-09-21T11:10:49.156Z,66.15
2022-09-21T11:20:59.706Z,68.14
2022-09-21T11:31:23.340Z,68.30
2022-09-21T11:41:54.859Z,67.40
2022-09-21T11:52:11.582Z,65.72
2022-09-21T12:02:39.350Z,64.68
2022-09-21T12:12:54.762Z,63.83
2022-09-21T12:23:06.173Z,62.78
2022-09-21T12:33:21.173Z,62.76
2022-09-21T12:43:36.028Z,63.37
2022-09-21T12:53:50.809Z,62.84
2022-09-21T13:04:12.415Z,62.14
2022-09-21T13:14:19.154Z,62.01
2022-09-21T13:24:31.052Z,60.71
2022-09-21T13:34:38.538Z,60.41
2022-09-21T13:44:46.348Z,61.49
2022-09-21T13:54:54.777Z,62.16
2022-09-21T14:05:06.073Z,62.93
2022-09-21T14:15:26.469Z,63.80
2022-09-21T14:25:53.244Z,63.78
2022-09-21T14:36:02.189Z,62.64
2022-09-21T14:46:26.391Z,62.97
2022-09-21T14:56:51.747Z,63.15
2022-09-21T15:07:26.504Z,62.47
2022-09-21T15:17:32.571Z,62.13
2022-09-21T15:27:38.323Z,62.12
2022-09-21T15:37:45.861Z,62.37
2022-09-21T15:47:51.940Z,63.67
2022-09-21T15:57:59.098Z,64.89
2022-09-21T16:08:22.668Z,65.81
2022-09-21T16:18:43.048Z,66.69
2022-09-21T16:28:49.299Z,67.87
2022-09-21T16:38:55.246Z,68.82
2022-09-21T16:49:02.162Z,69.49
2022-09-21T16:59:18.585Z,70.15
2022-09-21T17:09:29.421Z,71.30
2022-09-21T17:19:36.925Z,72.48
2022-09-21T17:29:47.952Z,73.87
2022-09-21T17:39:54.657Z,75.05
2022-09-21T17:50:03.855Z,76.12
2022-09-21T18:00:19.986Z,76.31
2022-09-21T18:10:27.163Z,76.17
2022-09-21T18:20:54.170Z,75.98
2022-09-21T18:31:20.951Z,75.91
2022-09-21T18:41:34.378Z,75.74
2022-09-21T18:51:46.973Z,75.54
2022-09-21T19:01:53.613Z,75.27
2022-09-21T19:12:07.482Z,75.71
2022-09-21T19:22:24.498Z,76.32
2022-09-21T19:32:37.225Z,76.63
2022-09-21T19:42:56.008Z,77.22
2022-09-21T19:53:16.605Z,77.67
2022-09-21T20:03:31.297Z,77.99
2022-09-21T20:13:53.067Z,78.42
2022-09-21T20:24:01.944Z,79.15
2022-09-21T20:34:07.633Z,79.76
2022-09-21T20:44:16.379Z,80.54
2022-09-21T20:54:23.325Z,81.35
2022-09-21T21:04:29.804Z,82.17
2022-09-21T21:14:35.471Z,82.57
2022-09-21T21:24:41.761Z,83.34
2022-09-21T21:34:49.708Z,83.97
2022-09-21T21:44:53.970Z,84.60
2022-09-21T21:54:59.876Z,84.42
2022-09-21T22:05:06.079Z,84.62
2022-09-21T22:15:13.591Z,84.84
2022-09-21T22:25:19.324Z,85.05
2022-09-21T22:35:25.330Z,85.43
2022-09-21T22:45:31.964Z,85.77
2022-09-21T22:55:37.673Z,86.10
2022-09-21T23:05:43.338Z,86.10
2022-09-21T23:15:49.012Z,86.26
2022-09-21T23:26:03.474Z,86.36
2022-09-21T23:36:11.281Z,86.60
2022-09-21T23:46:18.960Z,86.75
2022-09-21T23:56:23.752Z,86.77
